createdAt,value
2023-03-16T00:00:14.938Z,0
2023-03-16T00:01:14.874Z,0
2023-03-16T00:02:16.273Z,0
2023-03-16T00:03:16.893Z,0
2023-03-16T00:04:17.167Z,0
2023-03-16T00:05:17.418Z,0
2023-03-16T00:06:17.319Z,0
2023-03-16T00:07:18.566Z,0
2023-03-16T00:08:18.496Z,0
2023-03-16T00:09:19.127Z,0
2023-03-16T00:10:20.341Z,0
2023-03-16T00:11:21.294Z,0
2023-03-16T00:12:22.094Z,0
2023-03-16T00:13:23.595Z,0
2023-03-16T00:14:23.846Z,0
2023-03-16T00:15:23.867Z,0
2023-03-16T00:16:24.432Z,0
2023-03-16T00:17:24.792Z,0
2023-03-16T00:18:25.098Z,0
2023-03-16T00:19:25.902Z,0
2023-03-16T00:20:26.433Z,0
2023-03-16T00:21:26.771Z,0
2023-03-16T00:22:26.848Z,0
2023-03-16T00:23:27.628Z,0
2023-03-16T00:24:28.160Z,0
2023-03-16T00:25:27.813Z,0
2023-03-16T00:26:28.749Z,0
2023-03-16T00:27:29.697Z,0
2023-03-16T00:28:30.205Z,0
2023-03-16T00:29:29.843Z,0
2023-03-16T00:30:31.680Z,0
2023-03-16T00:31:31.836Z,0
2023-03-16T00:32:32.624Z,0
2023-03-16T00:33:32.855Z,0
2023-03-16T00:34:33.160Z,0
2023-03-16T00:35:33.374Z,0
2023-03-16T00:36:33.316Z,0
2023-03-16T00:37:34.955Z,0
2023-03-16T00:38:34.822Z,0
2023-03-16T00:39:34.838Z,0
2023-03-16T00:40:37.020Z,0
2023-03-16T00:41:35.921Z,0
2023-03-16T00:42:37.409Z,0
2023-03-16T00:43:37.324Z,0
2023-03-16T00:44:38.249Z,0
2023-03-16T00:45:39.536Z,0
2023-03-16T00:46:39.242Z,0
2023-03-16T00:47:40.794Z,0
2023-03-16T00:48:41.350Z,0
2023-03-16T00:49:41.640Z,0
2023-03-16T00:50:42.396Z,0
2023-03-16T00:51:42.896Z,0
2023-03-16T00:52:43.022Z,0
2023-03-16T00:53:43.807Z,0
2023-03-16T00:54:44.715Z,0
2023-03-16T00:55:45.644Z,0
2023-03-16T00:56:46.559Z,0
2023-03-16T00:57:47.401Z,0
2023-03-16T00:58:47.314Z,0
2023-03-16T00:59:48.803Z,0
2023-03-16T01:00:49.128Z,0
2023-03-16T01:01:49.776Z,0
2023-03-16T01:02:49.923Z,0
2023-03-16T01:03:51.227Z,0
2023-03-16T01:04:51.947Z,0
2023-03-16T01:05:52.312Z,0
2023-03-16T01:06:56.324Z,0
2023-03-16T01:07:53.237Z,0
2023-03-16T01:08:54.448Z,0
2023-03-16T01:09:54.391Z,0
2023-03-16T01:10:55.338Z,0
2023-03-16T01:11:56.548Z,0
2023-03-16T01:12:56.660Z,0
2023-03-16T01:13:56.863Z,0
2023-03-16T01:14:57.651Z,0
2023-03-16T01:15:57.297Z,0
2023-03-16T01:16:58.499Z,0
2023-03-16T01:17:59.038Z,0
2023-03-16T01:18:59.305Z,0
2023-03-16T01:19:59.574Z,0
2023-03-16T01:20:59.792Z,0
2023-03-16T01:22:00.283Z,0
2023-03-16T01:23:00.933Z,0
2023-03-16T01:24:01.327Z,0
2023-03-16T01:25:01.536Z,0
2023-03-16T01:26:02.229Z,0
2023-03-16T01:27:03.209Z,0
2023-03-16T01:28:02.842Z,0
2023-03-16T01:29:03.824Z,0
2023-03-16T01:30:04.790Z,0
2023-03-16T01:31:05.094Z,0
2023-03-16T01:32:05.640Z,0
2023-03-16T01:33:05.965Z,0
2023-03-16T01:34:06.499Z,0
2023-03-16T01:35:06.782Z,0
2023-03-16T01:36:07.665Z,0
2023-03-16T01:37:07.601Z,0
2023-03-16T01:38:08.232Z,0
2023-03-16T01:39:08.862Z,0
2023-03-16T01:40:09.511Z,0
2023-03-16T01:41:10.719Z,0
2023-03-16T01:42:10.661Z,0
2023-03-16T01:43:11.993Z,0
2023-03-16T01:44:12.101Z,0
2023-03-16T01:45:13.129Z,0
2023-03-16T01:46:14.407Z,0
2023-03-16T01:47:14.067Z,0
2023-03-16T01:48:15.725Z,0
2023-03-16T01:49:15.625Z,0
2023-03-16T01:50:16.622Z,0
2023-03-16T01:51:17.191Z,0
2023-03-16T01:52:16.812Z,0
2023-03-16T01:53:17.963Z,0
2023-03-16T01:54:18.459Z,0
2023-03-16T01:55:18.103Z,0
2023-03-16T01:56:19.042Z,0
2023-03-16T01:57:19.990Z,0
2023-03-16T01:58:20.660Z,0
2023-03-16T01:59:21.909Z,0
2023-03-16T02:00:22.538Z,0
2023-03-16T02:01:23.174Z,0
2023-03-16T02:02:23.275Z,0
2023-03-16T02:03:24.404Z,0
2023-03-16T02:04:26.639Z,0
2023-03-16T02:05:25.737Z,0
2023-03-16T02:06:26.734Z,0
2023-03-16T02:07:27.990Z,0
2023-03-16T02:08:28.206Z,0
2023-03-16T02:09:28.113Z,0
2023-03-16T02:10:29.488Z,0
2023-03-16T02:11:29.760Z,0
2023-03-16T02:12:31.117Z,0
2023-03-16T02:13:31.872Z,0
2023-03-16T02:14:32.068Z,0
2023-03-16T02:15:32.262Z,0
2023-03-16T02:16:32.716Z,0
2023-03-16T02:17:32.632Z,0
2023-03-16T02:18:34.010Z,0
2023-03-16T02:19:33.954Z,0
2023-03-16T02:20:35.877Z,0
2023-03-16T02:21:34.880Z,0
2023-03-16T02:22:35.841Z,0
2023-03-16T02:23:36.177Z,0
2023-03-16T02:24:36.279Z,0
2023-03-16T02:25:36.770Z,0
2023-03-16T02:26:36.713Z,0
2023-03-16T02:27:38.198Z,0
2023-03-16T02:28:38.694Z,0
2023-03-16T02:29:38.313Z,0
2023-03-16T02:30:40.911Z,0
2023-03-16T02:31:40.552Z,0
2023-03-16T02:32:40.802Z,0
2023-03-16T02:33:40.872Z,0
2023-03-16T02:34:41.080Z,0
2023-03-16T02:35:41.492Z,0
2023-03-16T02:36:41.718Z,0
2023-03-16T02:37:41.833Z,0
2023-03-16T02:38:41.764Z,0
2023-03-16T02:39:42.701Z,0
2023-03-16T02:40:43.514Z,0
2023-03-16T02:41:43.727Z,0
2023-03-16T02:42:44.796Z,0
2023-03-16T02:43:44.599Z,0
2023-03-16T02:44:45.875Z,0
2023-03-16T02:45:46.103Z,0
2023-03-16T02:46:46.853Z,0
2023-03-16T02:47:47.400Z,0
2023-03-16T02:48:47.633Z,0
2023-03-16T02:49:47.735Z,0
2023-03-16T02:50:48.025Z,0
2023-03-16T02:51:47.913Z,0
2023-03-16T02:52:49.139Z,0
2023-03-16T02:53:50.138Z,0
2023-03-16T02:54:50.834Z,0
2023-03-16T02:55:52.321Z,0
2023-03-16T02:56:52.839Z,0
2023-03-16T02:57:53.336Z,0
2023-03-16T02:58:53.822Z,0
2023-03-16T02:59:54.026Z,0
2023-03-16T03:00:55.251Z,0
2023-03-16T03:01:55.465Z,0
2023-03-16T03:02:55.879Z,0
2023-03-16T03:03:56.844Z,0
2023-03-16T03:04:56.511Z,0
2023-03-16T03:05:57.803Z,0
2023-03-16T03:06:57.748Z,0
2023-03-16T03:07:59.237Z,0
2023-03-16T03:08:59.718Z,0
2023-03-16T03:09:59.933Z,0
2023-03-16T03:11:00.221Z,0
2023-03-16T03:12:00.196Z,0
2023-03-16T03:13:01.711Z,0
2023-03-16T03:14:02.025Z,0
2023-03-16T03:15:02.529Z,0
2023-03-16T03:16:02.411Z,0
2023-03-16T03:17:03.103Z,0
2023-03-16T03:18:03.610Z,0
2023-03-16T03:19:03.885Z,0
2023-03-16T03:20:03.807Z,0
2023-03-16T03:21:04.866Z,0
2023-03-16T03:22:04.780Z,0
2023-03-16T03:23:06.011Z,0
2023-03-16T03:24:06.052Z,0
2023-03-16T03:25:06.970Z,0
2023-03-16T03:26:07.282Z,0
2023-03-16T03:27:07.214Z,0
2023-03-16T03:28:08.693Z,0
2023-03-16T03:29:08.646Z,0
2023-03-16T03:30:10.198Z,0
2023-03-16T03:31:10.447Z,0
2023-03-16T03:32:10.687Z,0
2023-03-16T03:33:12.135Z,0
2023-03-16T03:34:12.435Z,0
2023-03-16T03:35:13.106Z,0
2023-03-16T03:36:14.610Z,0
2023-03-16T03:37:14.845Z,0
2023-03-16T03:38:15.344Z,0
2023-03-16T03:39:15.923Z,0
2023-03-16T03:40:15.912Z,0
2023-03-16T03:41:16.545Z,0
2023-03-16T03:42:16.762Z,0
2023-03-16T03:43:16.681Z,0
2023-03-16T03:44:18.017Z,0
2023-03-16T03:45:18.412Z,0
2023-03-16T03:46:19.530Z,0
2023-03-16T03:47:19.231Z,0
2023-03-16T03:48:20.161Z,0
2023-03-16T03:49:21.406Z,0
2023-03-16T03:50:22.085Z,0
2023-03-16T03:51:22.648Z,0
2023-03-16T03:52:23.146Z,0
2023-03-16T03:53:23.072Z,0
2023-03-16T03:54:23.780Z,0
2023-03-16T03:55:24.999Z,0
2023-03-16T03:56:25.195Z,0
2023-03-16T03:57:27.469Z,0
2023-03-16T03:58:26.385Z,0
2023-03-16T03:59:27.391Z,0
2023-03-16T04:00:29.016Z,0
2023-03-16T04:01:29.139Z,0
2023-03-16T04:02:30.509Z,0
2023-03-16T04:03:30.568Z,0
2023-03-16T04:04:30.021Z,0
2023-03-16T04:05:30.761Z,0
2023-03-16T04:06:32.344Z,0
2023-03-16T04:07:32.840Z,0
2023-03-16T04:08:32.465Z,0
2023-03-16T04:09:33.109Z,0
2023-03-16T04:10:34.400Z,0
2023-03-16T04:11:34.307Z,0
2023-03-16T04:12:35.723Z,0
2023-03-16T04:13:36.206Z,0
2023-03-16T04:14:36.244Z,0
2023-03-16T04:15:36.165Z,0
2023-03-16T04:16:37.307Z,0
2023-03-16T04:17:37.844Z,0
2023-03-16T04:18:38.409Z,0
2023-03-16T04:19:38.734Z,0
2023-03-16T04:20:39.692Z,0
2023-03-16T04:21:39.969Z,0
2023-03-16T04:22:39.860Z,0
2023-03-16T04:23:41.071Z,0
2023-03-16T04:24:41.112Z,0
2023-03-16T04:25:41.078Z,0
2023-03-16T04:26:42.012Z,0
2023-03-16T04:27:43.216Z,0
2023-03-16T04:28:43.157Z,0
2023-03-16T04:29:44.368Z,0
2023-03-16T04:30:45.027Z,0
2023-03-16T04:31:44.710Z,0
2023-03-16T04:32:46.189Z,0
2023-03-16T04:33:45.833Z,0
2023-03-16T04:34:47.194Z,0
2023-03-16T04:35:47.133Z,0
2023-03-16T04:36:48.424Z,0
2023-03-16T04:37:48.907Z,0
2023-03-16T04:38:48.815Z,0
2023-03-16T04:39:49.458Z,0
2023-03-16T04:40:50.844Z,0
2023-03-16T04:41:51.059Z,0
2023-03-16T04:42:51.984Z,0
2023-03-16T04:43:52.195Z,0
2023-03-16T04:44:52.811Z,0
2023-03-16T04:45:53.424Z,0
2023-03-16T04:46:53.718Z,0
2023-03-16T04:47:53.922Z,0
2023-03-16T04:48:54.860Z,0
2023-03-16T04:49:55.415Z,0
2023-03-16T04:50:55.620Z,0
2023-03-16T04:51:56.608Z,0
2023-03-16T04:52:56.815Z,0
2023-03-16T04:53:57.012Z,0
2023-03-16T04:54:57.996Z,0
2023-03-16T04:55:58.202Z,0
2023-03-16T04:56:58.556Z,0
2023-03-16T04:57:59.763Z,0
2023-03-16T04:59:00.430Z,0
2023-03-16T05:00:01.360Z,0
2023-03-16T05:01:02.564Z,0
2023-03-16T05:02:03.917Z,0
2023-03-16T05:03:03.843Z,0
2023-03-16T05:04:05.358Z,0
2023-03-16T05:05:06.120Z,0
2023-03-16T05:06:06.489Z,0
2023-03-16T05:07:07.506Z,0
2023-03-16T05:08:07.706Z,0
2023-03-16T05:09:07.942Z,0
2023-03-16T05:10:08.617Z,0
2023-03-16T05:11:09.548Z,0
2023-03-16T05:12:10.473Z,0
2023-03-16T05:13:11.136Z,0
2023-03-16T05:14:11.789Z,0
2023-03-16T05:15:13.065Z,0
2023-03-16T05:16:13.708Z,0
2023-03-16T05:17:13.369Z,0
2023-03-16T05:18:14.565Z,0
2023-03-16T05:19:14.767Z,0
2023-03-16T05:20:16.270Z,0
2023-03-16T05:21:15.046Z,0
2023-03-16T05:22:16.602Z,0
2023-03-16T05:23:16.793Z,0
2023-03-16T05:24:17.038Z,0
2023-03-16T05:25:17.446Z,0
2023-03-16T05:26:17.795Z,5.63
2023-03-16T05:27:17.721Z,5.63
2023-03-16T05:28:18.788Z,5.63
2023-03-16T05:29:19.017Z,5.63
2023-03-16T05:30:19.227Z,5.63
2023-03-16T05:31:19.779Z,5.63
2023-03-16T05:32:19.438Z,5.63
2023-03-16T05:33:20.966Z,5.63
2023-03-16T05:34:20.889Z,11.25
2023-03-16T05:35:24.154Z,11.25
2023-03-16T05:36:22.710Z,11.25
2023-03-16T05:37:22.703Z,11.25
2023-03-16T05:38:24.205Z,11.25
2023-03-16T05:39:24.427Z,11.25
2023-03-16T05:40:24.617Z,16.88
2023-03-16T05:41:25.689Z,16.88
2023-03-16T05:42:26.613Z,16.88
2023-03-16T05:43:26.977Z,16.88
2023-03-16T05:44:26.911Z,22.5
2023-03-16T05:45:28.096Z,22.5
2023-03-16T05:46:31.895Z,22.5
2023-03-16T05:47:29.168Z,22.5
2023-03-16T05:48:28.826Z,22.5
2023-03-16T05:49:29.494Z,28.13
2023-03-16T05:50:31.396Z,28.13
2023-03-16T05:51:31.346Z,28.13
2023-03-16T05:52:32.346Z,28.13
2023-03-16T05:53:32.265Z,33.75
2023-03-16T05:54:33.502Z,33.75
2023-03-16T05:55:33.924Z,33.75
2023-03-16T05:56:35.416Z,33.75
2023-03-16T05:57:35.633Z,33.75
2023-03-16T05:58:35.880Z,33.75
2023-03-16T05:59:36.513Z,39.38
2023-03-16T06:00:38.477Z,39.38
2023-03-16T06:01:38.714Z,39.38
2023-03-16T06:02:38.541Z,45
2023-03-16T06:03:39.939Z,45
2023-03-16T06:04:40.191Z,95.63
2023-03-16T06:05:40.960Z,174.38
2023-03-16T06:06:40.984Z,225
2023-03-16T06:07:41.252Z,157.5
2023-03-16T06:08:41.175Z,180
2023-03-16T06:09:42.123Z,112.5
2023-03-16T06:10:42.331Z,112.5
2023-03-16T06:11:42.255Z,112.5
2023-03-16T06:12:43.462Z,84.38
2023-03-16T06:13:43.676Z,118.13
2023-03-16T06:14:43.599Z,213.75
2023-03-16T06:15:44.370Z,258.75
2023-03-16T06:16:45.889Z,303.75
2023-03-16T06:17:45.800Z,264.38
2023-03-16T06:18:47.027Z,225
2023-03-16T06:19:46.951Z,247.5
2023-03-16T06:20:47.970Z,151.88
2023-03-16T06:21:48.158Z,129.38
2023-03-16T06:22:48.548Z,135
2023-03-16T06:23:48.486Z,146.25
2023-03-16T06:24:48.877Z,101.25
2023-03-16T06:25:52.149Z,123.75
2023-03-16T06:26:49.520Z,123.75
2023-03-16T06:27:50.158Z,90
2023-03-16T06:28:51.454Z,78.75
2023-03-16T06:29:51.358Z,73.13
2023-03-16T06:30:52.047Z,84.38
2023-03-16T06:31:53.922Z,112.5
2023-03-16T06:32:54.483Z,101.25
2023-03-16T06:33:54.199Z,84.38
2023-03-16T06:34:55.137Z,90
2023-03-16T06:35:56.394Z,140.63
2023-03-16T06:36:56.652Z,180
2023-03-16T06:37:57.679Z,129.38
2023-03-16T06:38:57.324Z,180
2023-03-16T06:39:58.539Z,281.25
2023-03-16T06:40:58.758Z,343.13
2023-03-16T06:41:59.465Z,241.88
2023-03-16T06:43:02.960Z,146.25
2023-03-16T06:44:00.598Z,213.75
2023-03-16T06:45:01.511Z,303.75
2023-03-16T06:46:02.236Z,208.13
2023-03-16T06:47:02.448Z,196.88
2023-03-16T06:48:02.801Z,191.25
2023-03-16T06:49:02.709Z,174.38
2023-03-16T06:50:03.993Z,180
2023-03-16T06:51:04.563Z,180
2023-03-16T06:52:04.507Z,174.38
2023-03-16T06:53:05.763Z,157.5
2023-03-16T06:54:05.985Z,191.25
2023-03-16T06:55:05.945Z,168.75
2023-03-16T06:56:07.247Z,146.25
2023-03-16T06:57:07.743Z,129.38
2023-03-16T06:58:08.184Z,230.63
2023-03-16T06:59:08.399Z,438.75
2023-03-16T07:00:08.049Z,466.88
2023-03-16T07:01:09.423Z,427.5
2023-03-16T07:02:09.671Z,388.13
2023-03-16T07:03:11.690Z,354.38
2023-03-16T07:04:10.718Z,303.75
2023-03-16T07:05:11.667Z,343.13
2023-03-16T07:06:12.806Z,326.25
2023-03-16T07:07:13.757Z,320.63
2023-03-16T07:08:14.792Z,331.88
2023-03-16T07:09:15.132Z,298.13
2023-03-16T07:10:15.357Z,230.63
2023-03-16T07:11:16.580Z,174.38
2023-03-16T07:12:17.112Z,168.75
2023-03-16T07:13:17.041Z,174.38
2023-03-16T07:14:18.276Z,196.88
2023-03-16T07:15:18.006Z,236.25
2023-03-16T07:16:19.008Z,219.38
2023-03-16T07:17:19.610Z,247.5
2023-03-16T07:18:19.568Z,202.5
2023-03-16T07:19:19.768Z,163.13
2023-03-16T07:20:21.110Z,157.5
2023-03-16T07:21:20.559Z,185.63
2023-03-16T07:22:19.888Z,298.13
2023-03-16T07:23:21.386Z,376.88
2023-03-16T07:24:21.593Z,416.25
2023-03-16T07:25:21.540Z,472.5
2023-03-16T07:26:23.195Z,444.38
2023-03-16T07:27:23.860Z,343.13
2023-03-16T07:28:23.540Z,292.5
2023-03-16T07:29:24.470Z,230.63
2023-03-16T07:30:25.791Z,253.13
2023-03-16T07:31:26.549Z,320.63
2023-03-16T07:32:26.900Z,270
2023-03-16T07:33:27.532Z,196.88
2023-03-16T07:34:27.778Z,230.63
2023-03-16T07:35:28.444Z,421.88
2023-03-16T07:36:29.959Z,405
2023-03-16T07:37:36.866Z,393.75
2023-03-16T07:38:30.918Z,478.13
2023-03-16T07:39:31.198Z,455.63
2023-03-16T07:40:31.643Z,489.38
2023-03-16T07:41:32.712Z,528.75
2023-03-16T07:42:32.806Z,495
2023-03-16T07:43:33.765Z,405
2023-03-16T07:44:33.848Z,421.88
2023-03-16T07:45:35.235Z,388.13
2023-03-16T07:46:35.874Z,365.63
2023-03-16T07:47:38.114Z,444.38
2023-03-16T07:48:36.783Z,416.25
2023-03-16T07:49:37.729Z,427.5
2023-03-16T07:50:38.557Z,461.25
2023-03-16T07:51:38.824Z,444.38
2023-03-16T07:52:42.550Z,365.63
2023-03-16T07:53:39.596Z,331.88
2023-03-16T07:54:40.827Z,292.5
2023-03-16T07:55:41.329Z,241.88
2023-03-16T07:57:00.377Z,275.63
2023-03-16T07:57:41.207Z,275.63
2023-03-16T07:58:42.181Z,253.13
2023-03-16T07:59:42.141Z,219.38
2023-03-16T08:00:44.080Z,219.38
2023-03-16T08:01:44.306Z,230.63
2023-03-16T08:02:44.296Z,225
2023-03-16T08:03:45.972Z,208.13
2023-03-16T08:04:46.660Z,196.88
2023-03-16T08:05:46.593Z,191.25
2023-03-16T08:06:48.278Z,213.75
2023-03-16T08:07:48.493Z,225
2023-03-16T08:08:49.806Z,309.38
2023-03-16T08:09:49.744Z,478.13
2023-03-16T08:10:51.251Z,725.63
2023-03-16T08:11:50.683Z,1074.38
2023-03-16T08:12:51.642Z,1260
2023-03-16T08:13:52.627Z,1108.13
2023-03-16T08:14:53.858Z,1417.5
2023-03-16T08:15:54.406Z,1743.75
2023-03-16T08:16:54.850Z,1552.5
2023-03-16T08:17:55.535Z,1428.75
2023-03-16T08:18:57.089Z,1468.13
2023-03-16T08:19:57.064Z,1642.5
2023-03-16T08:20:58.304Z,1518.75
2023-03-16T08:22:16.988Z,1198.13
2023-03-16T08:22:59.506Z,1080
2023-03-16T08:23:59.800Z,978.75
2023-03-16T08:25:00.336Z,1091.25
2023-03-16T08:26:00.595Z,1125
2023-03-16T08:27:00.978Z,1096.88
2023-03-16T08:28:01.500Z,894.38
2023-03-16T08:29:01.589Z,748.13
2023-03-16T08:30:01.517Z,765
2023-03-16T08:31:02.738Z,871.88
2023-03-16T08:32:03.273Z,826.88
2023-03-16T08:33:03.735Z,736.88
2023-03-16T08:34:03.695Z,641.25
2023-03-16T08:35:04.935Z,455.63
2023-03-16T08:36:05.518Z,523.13
2023-03-16T08:37:05.653Z,1012.5
2023-03-16T08:38:05.964Z,945
2023-03-16T08:39:23.447Z,781.88
2023-03-16T08:40:06.676Z,877.5
2023-03-16T08:41:06.608Z,832.5
2023-03-16T08:42:08.178Z,691.88
2023-03-16T08:43:07.863Z,337.5
2023-03-16T08:44:09.086Z,180
2023-03-16T08:45:11.699Z,180
2023-03-16T08:46:10.010Z,202.5
2023-03-16T08:47:10.761Z,303.75
2023-03-16T08:48:10.730Z,416.25
2023-03-16T08:49:11.036Z,376.88
2023-03-16T08:50:11.640Z,275.63
2023-03-16T08:51:12.166Z,208.13
2023-03-16T08:52:12.178Z,174.38
2023-03-16T08:53:13.577Z,202.5
2023-03-16T08:54:14.121Z,196.88
2023-03-16T08:55:20.231Z,202.5
2023-03-16T08:56:14.268Z,320.63
2023-03-16T08:57:15.637Z,365.63
2023-03-16T08:58:15.580Z,405
2023-03-16T08:59:30.398Z,433.13
2023-03-16T09:00:16.903Z,455.63
2023-03-16T09:01:18.817Z,556.88
2023-03-16T09:02:18.292Z,658.13
2023-03-16T09:03:17.972Z,691.88
2023-03-16T09:04:19.803Z,720
2023-03-16T09:05:20.354Z,658.13
2023-03-16T09:06:20.871Z,630
2023-03-16T09:07:26.598Z,697.5
2023-03-16T09:08:27.907Z,776.25
2023-03-16T09:09:28.993Z,810
2023-03-16T09:10:29.634Z,804.38
2023-03-16T09:11:29.670Z,748.13
2023-03-16T09:12:30.893Z,686.25
2023-03-16T09:13:31.845Z,613.13
2023-03-16T09:14:32.206Z,523.13
2023-03-16T09:15:32.207Z,483.75
2023-03-16T09:16:33.280Z,376.88
2023-03-16T09:17:33.099Z,331.88
2023-03-16T09:18:33.755Z,247.5
2023-03-16T09:19:51.402Z,253.13
2023-03-16T09:20:45.259Z,247.5
2023-03-16T09:21:36.547Z,247.5
2023-03-16T09:22:36.954Z,208.13
2023-03-16T09:23:36.907Z,208.13
2023-03-16T09:24:37.374Z,303.75
2023-03-16T09:25:38.083Z,326.25
2023-03-16T09:26:38.470Z,264.38
2023-03-16T09:27:38.438Z,258.75
2023-03-16T09:28:39.259Z,275.63
2023-03-16T09:29:40.518Z,286.88
2023-03-16T09:30:42.849Z,292.5
2023-03-16T09:31:42.014Z,309.38
2023-03-16T09:32:42.929Z,309.38
2023-03-16T09:33:43.741Z,292.5
2023-03-16T09:34:45.143Z,275.63
2023-03-16T09:35:47.406Z,309.38
2023-03-16T09:36:45.079Z,275.63
2023-03-16T09:38:17.330Z,196.88
2023-03-16T09:38:46.894Z,219.38
2023-03-16T09:39:46.844Z,343.13
2023-03-16T09:40:47.690Z,421.88
2023-03-16T09:41:48.202Z,393.75
2023-03-16T09:42:48.467Z,388.13
2023-03-16T09:43:48.432Z,405
2023-03-16T09:44:49.401Z,455.63
2023-03-16T09:45:50.270Z,540
2023-03-16T09:46:52.379Z,579.38
2023-03-16T09:47:50.764Z,551.25
2023-03-16T09:48:51.023Z,579.38
2023-03-16T09:49:51.558Z,613.13
2023-03-16T09:51:05.931Z,562.5
2023-03-16T09:51:52.499Z,573.75
2023-03-16T09:52:53.055Z,534.38
2023-03-16T09:53:53.612Z,466.88
2023-03-16T09:54:53.572Z,478.13
2023-03-16T09:55:53.570Z,523.13
2023-03-16T09:56:54.819Z,534.38
2023-03-16T09:57:56.023Z,534.38
2023-03-16T09:58:56.331Z,540
2023-03-16T09:59:56.279Z,489.38
2023-03-16T10:00:57.854Z,540
2023-03-16T10:01:57.823Z,483.75
2023-03-16T10:02:59.354Z,483.75
2023-03-16T10:03:59.536Z,495
2023-03-16T10:05:01.649Z,478.13
2023-03-16T10:06:00.738Z,534.38
2023-03-16T10:07:02.357Z,601.88
2023-03-16T10:08:02.484Z,613.13
2023-03-16T10:09:03.748Z,568.13
2023-03-16T10:10:04.560Z,551.25
2023-03-16T10:11:04.914Z,573.75
2023-03-16T10:12:05.257Z,624.38
2023-03-16T10:13:05.720Z,635.63
2023-03-16T10:14:05.984Z,641.25
2023-03-16T10:15:06.503Z,658.13
2023-03-16T10:16:06.264Z,720
2023-03-16T10:17:07.844Z,922.5
2023-03-16T10:18:08.180Z,1096.88
2023-03-16T10:19:08.724Z,1130.63
2023-03-16T10:20:08.984Z,1085.63
2023-03-16T10:21:09.684Z,956.25
2023-03-16T10:22:11.283Z,804.38
2023-03-16T10:23:11.546Z,765
2023-03-16T10:24:11.520Z,748.13
2023-03-16T10:25:12.776Z,736.88
2023-03-16T10:26:13.865Z,731.25
2023-03-16T10:27:14.395Z,714.38
2023-03-16T10:28:14.736Z,731.25
2023-03-16T10:29:15.242Z,736.88
2023-03-16T10:30:15.454Z,742.5
2023-03-16T10:31:15.777Z,776.25
2023-03-16T10:32:16.253Z,871.88
2023-03-16T10:33:16.867Z,1012.5
2023-03-16T10:34:16.584Z,1080
2023-03-16T10:35:17.831Z,1085.63
2023-03-16T10:36:19.245Z,1091.25
2023-03-16T10:37:19.319Z,1119.38
2023-03-16T10:38:20.466Z,1113.75
2023-03-16T10:39:21.019Z,1085.63
2023-03-16T10:40:21.400Z,1108.13
2023-03-16T10:41:21.809Z,1108.13
2023-03-16T10:42:22.334Z,1080
2023-03-16T10:43:22.942Z,967.5
2023-03-16T10:44:23.174Z,838.13
2023-03-16T10:45:24.405Z,753.75
2023-03-16T10:46:26.882Z,736.88
2023-03-16T10:47:25.730Z,736.88
2023-03-16T10:48:25.453Z,742.5
2023-03-16T10:49:25.418Z,753.75
2023-03-16T10:50:26.576Z,810
2023-03-16T10:51:26.331Z,945
2023-03-16T10:52:27.598Z,1040.63
2023-03-16T10:53:27.741Z,1046.25
2023-03-16T10:54:28.512Z,1074.38
2023-03-16T10:55:30.109Z,1096.88
2023-03-16T10:56:30.624Z,1108.13
2023-03-16T10:57:30.645Z,1113.75
2023-03-16T10:58:30.919Z,1108.13
2023-03-16T10:59:31.199Z,1130.63
2023-03-16T11:00:31.191Z,1102.5
2023-03-16T11:01:33.200Z,1074.38
2023-03-16T11:02:33.489Z,1074.38
2023-03-16T11:03:35.182Z,1029.38
2023-03-16T11:04:35.034Z,871.88
2023-03-16T11:05:36.183Z,832.5
2023-03-16T11:06:36.466Z,888.75
2023-03-16T11:07:36.415Z,877.5
2023-03-16T11:08:37.649Z,798.75
2023-03-16T11:09:38.051Z,759.38
2023-03-16T11:10:54.905Z,731.25
2023-03-16T11:11:40.329Z,804.38
2023-03-16T11:12:40.852Z,838.13
2023-03-16T11:13:41.107Z,888.75
2023-03-16T11:14:41.379Z,888.75
2023-03-16T11:15:43.353Z,787.5
2023-03-16T11:16:43.135Z,776.25
2023-03-16T11:17:42.563Z,731.25
2023-03-16T11:18:43.683Z,703.13
2023-03-16T11:19:43.686Z,765
2023-03-16T11:20:44.932Z,787.5
2023-03-16T11:21:45.167Z,815.63
2023-03-16T11:22:45.687Z,748.13
2023-03-16T11:23:46.307Z,708.75
2023-03-16T11:24:46.585Z,725.63
2023-03-16T11:25:47.410Z,624.38
2023-03-16T11:26:48.887Z,528.75
2023-03-16T11:27:48.447Z,506.25
2023-03-16T11:28:49.125Z,675
2023-03-16T11:29:49.556Z,866.25
2023-03-16T11:30:50.174Z,669.38
2023-03-16T11:31:50.291Z,596.25
2023-03-16T11:32:51.431Z,540
2023-03-16T11:33:51.392Z,601.88
2023-03-16T11:34:52.048Z,776.25
2023-03-16T11:36:10.526Z,725.63
2023-03-16T11:36:53.503Z,556.88
2023-03-16T11:37:54.780Z,675
2023-03-16T11:38:56.746Z,731.25
2023-03-16T11:39:56.374Z,753.75
2023-03-16T11:40:56.940Z,736.88
2023-03-16T11:41:57.242Z,720
2023-03-16T11:42:56.906Z,669.38
2023-03-16T11:43:57.572Z,624.38
2023-03-16T11:45:01.899Z,523.13
2023-03-16T11:45:59.895Z,438.75
2023-03-16T11:47:00.284Z,495
2023-03-16T11:48:01.525Z,534.38
2023-03-16T11:49:01.908Z,534.38
2023-03-16T11:50:02.121Z,433.13
2023-03-16T11:51:02.642Z,523.13
2023-03-16T11:52:02.925Z,658.13
2023-03-16T11:53:02.870Z,635.63
2023-03-16T11:54:04.214Z,500.63
2023-03-16T11:55:04.944Z,461.25
2023-03-16T11:56:05.517Z,506.25
2023-03-16T11:57:05.824Z,506.25
2023-03-16T11:58:08.130Z,500.63
2023-03-16T11:59:06.483Z,511.88
2023-03-16T12:00:17.405Z,472.5
2023-03-16T12:01:07.639Z,495
2023-03-16T12:02:17.611Z,596.25
2023-03-16T12:03:08.923Z,630
2023-03-16T12:04:09.497Z,613.13
2023-03-16T12:05:09.414Z,573.75
2023-03-16T12:06:26.038Z,596.25
2023-03-16T12:07:11.298Z,517.5
2023-03-16T12:08:11.828Z,483.75
2023-03-16T12:09:12.429Z,523.13
2023-03-16T12:10:12.412Z,523.13
2023-03-16T12:11:12.649Z,495
2023-03-16T12:12:12.974Z,556.88
2023-03-16T12:13:13.233Z,585
2023-03-16T12:14:12.919Z,556.88
2023-03-16T12:15:13.853Z,596.25
2023-03-16T12:16:15.037Z,618.75
2023-03-16T12:17:17.566Z,630
2023-03-16T12:18:15.489Z,635.63
2023-03-16T12:19:16.263Z,624.38
2023-03-16T12:20:16.867Z,635.63
2023-03-16T12:21:17.108Z,635.63
2023-03-16T12:22:17.331Z,635.63
2023-03-16T12:23:18.016Z,618.75
2023-03-16T12:24:19.273Z,585
2023-03-16T12:25:20.260Z,573.75
2023-03-16T12:26:20.763Z,511.88
2023-03-16T12:27:20.552Z,495
2023-03-16T12:28:21.491Z,511.88
2023-03-16T12:29:22.276Z,489.38
2023-03-16T12:30:23.272Z,523.13
2023-03-16T12:31:23.532Z,511.88
2023-03-16T12:32:24.829Z,478.13
2023-03-16T12:33:24.479Z,540
2023-03-16T12:34:26.012Z,607.5
2023-03-16T12:35:28.802Z,607.5
2023-03-16T12:36:26.773Z,601.88
2023-03-16T12:37:28.343Z,585
2023-03-16T12:38:28.031Z,573.75
2023-03-16T12:39:29.352Z,528.75
2023-03-16T12:40:30.680Z,483.75
2023-03-16T12:41:34.669Z,455.63
2023-03-16T12:42:32.305Z,444.38
2023-03-16T12:43:32.137Z,433.13
2023-03-16T12:44:33.475Z,427.5
2023-03-16T12:45:34.559Z,421.88
2023-03-16T12:46:35.030Z,416.25
2023-03-16T12:47:35.267Z,393.75
2023-03-16T12:48:35.193Z,388.13
2023-03-16T12:49:36.590Z,371.25
2023-03-16T12:50:36.940Z,360
2023-03-16T12:51:36.651Z,337.5
2023-03-16T12:52:37.907Z,365.63
2023-03-16T12:53:37.563Z,354.38
2023-03-16T12:54:38.894Z,360
2023-03-16T12:55:40.816Z,348.75
2023-03-16T12:56:39.804Z,337.5
2023-03-16T12:57:42.440Z,331.88
2023-03-16T12:58:40.139Z,348.75
2023-03-16T12:59:40.636Z,337.5
2023-03-16T13:00:41.570Z,315
2023-03-16T13:01:42.365Z,292.5
2023-03-16T13:02:42.712Z,286.88
2023-03-16T13:03:43.131Z,286.88
2023-03-16T13:04:43.716Z,298.13
2023-03-16T13:05:44.973Z,331.88
2023-03-16T13:06:47.628Z,326.25
2023-03-16T13:07:45.422Z,337.5
2023-03-16T13:08:45.056Z,331.88
2023-03-16T13:09:46.741Z,326.25
2023-03-16T13:10:47.574Z,354.38
2023-03-16T13:11:47.754Z,348.75
2023-03-16T13:12:48.247Z,343.13
2023-03-16T13:13:49.045Z,326.25
2023-03-16T13:14:49.017Z,337.5
2023-03-16T13:15:49.988Z,337.5
2023-03-16T13:16:51.757Z,365.63
2023-03-16T13:17:55.238Z,360
2023-03-16T13:18:51.911Z,371.25
2023-03-16T13:19:53.004Z,382.5
2023-03-16T13:20:53.504Z,376.88
2023-03-16T13:21:53.722Z,365.63
2023-03-16T13:22:54.415Z,360
2023-03-16T13:23:54.847Z,360
2023-03-16T13:24:55.288Z,343.13
2023-03-16T13:25:55.963Z,331.88
2023-03-16T13:26:56.792Z,331.88
2023-03-16T13:27:57.895Z,326.25
2023-03-16T13:28:58.455Z,348.75
2023-03-16T13:29:58.814Z,343.13
2023-03-16T13:31:00.145Z,354.38
2023-03-16T13:31:59.770Z,343.13
2023-03-16T13:33:00.757Z,337.5
2023-03-16T13:34:01.060Z,348.75
2023-03-16T13:35:01.877Z,348.75